sensor_id;sensor_type;location;lat;lon;timestamp;pressure;altitude;pressure_sealevel;temperature;humidity
39435;BME280;66825;51.880;-0.518;2023-07-13T00:01:44;100469.53;;;22.78;44.27
39435;BME280;66825;51.880;-0.518;2023-07-13T00:04:14;100456.34;;;22.71;44.31
39435;BME280;66825;51.880;-0.518;2023-07-13T00:06:39;100473.41;;;22.77;44.19
39435;BME280;66825;51.880;-0.518;2023-07-13T00:09:05;100468.75;;;22.77;44.20
39435;BME280;66825;51.880;-0.518;2023-07-13T00:11:31;100399.59;;;22.33;44.26
39435;BME280;66825;51.880;-0.518;2023-07-13T00:13:57;100469.09;;;22.76;44.31
39435;BME280;66825;51.880;-0.518;2023-07-13T00:16:23;100462.00;;;22.75;44.27
39435;BME280;66825;51.880;-0.518;2023-07-13T00:18:48;100463.59;;;22.76;44.28
39435;BME280;66825;51.880;-0.518;2023-07-13T00:21:14;100469.41;;;22.74;44.17
39435;BME280;66825;51.880;-0.518;2023-07-13T00:23:41;100457.63;;;22.74;44.15
39435;BME280;66825;51.880;-0.518;2023-07-13T00:26:08;100453.94;;;22.69;44.29
39435;BME280;66825;51.880;-0.518;2023-07-13T00:28:34;100420.03;;;22.44;44.24
39435;BME280;66825;51.880;-0.518;2023-07-13T00:31:00;100465.03;;;22.73;44.36
39435;BME280;66825;51.880;-0.518;2023-07-13T00:33:28;100459.09;;;22.71;44.54
39435;BME280;66825;51.880;-0.518;2023-07-13T00:35:54;100453.00;;;22.65;44.28
39435;BME280;66825;51.880;-0.518;2023-07-13T00:38:20;100458.75;;;22.73;44.24
39435;BME280;66825;51.880;-0.518;2023-07-13T00:40:46;100462.66;;;22.72;44.22
39435;BME280;66825;51.880;-0.518;2023-07-13T00:43:14;100439.34;;;22.57;44.22
39435;BME280;66825;51.880;-0.518;2023-07-13T00:48:10;100461.84;;;22.71;44.28
39435;BME280;66825;51.880;-0.518;2023-07-13T00:50:37;100459.41;;;22.69;44.18
39435;BME280;66825;51.880;-0.518;2023-07-13T00:53:03;100456.09;;;22.64;44.13
39435;BME280;66825;51.880;-0.518;2023-07-13T00:55:29;100428.75;;;22.46;44.14
39435;BME280;66825;51.880;-0.518;2023-07-13T00:57:55;100457.84;;;22.68;44.21
39435;BME280;66825;51.880;-0.518;2023-07-13T01:00:21;100430.84;;;22.49;44.25
39435;BME280;66825;51.880;-0.518;2023-07-13T01:02:48;100455.09;;;22.68;44.35
39435;BME280;66825;51.880;-0.518;2023-07-13T01:05:17;100458.97;;;22.67;44.33
39435;BME280;66825;51.880;-0.518;2023-07-13T01:07:44;100453.78;;;22.66;44.36
39435;BME280;66825;51.880;-0.518;2023-07-13T01:10:11;100460.91;;;22.67;44.27
39435;BME280;66825;51.880;-0.518;2023-07-13T01:12:37;100452.88;;;22.62;44.14
39435;BME280;66825;51.880;-0.518;2023-07-13T01:15:03;100456.75;;;22.61;44.22
39435;BME280;66825;51.880;-0.518;2023-07-13T01:17:30;100445.75;;;22.61;44.27
39435;BME280;66825;51.880;-0.518;2023-07-13T01:19:56;100457.34;;;22.66;44.29
39435;BME280;66825;51.880;-0.518;2023-07-13T01:22:22;100447.59;;;22.57;44.24
39435;BME280;66825;51.880;-0.518;2023-07-13T01:24:51;100448.50;;;22.61;44.42
39435;BME280;66825;51.880;-0.518;2023-07-13T01:27:22;100390.13;;;22.21;44.28
39435;BME280;66825;51.880;-0.518;2023-07-13T01:29:48;100446.59;;;22.61;44.33
39435;BME280;66825;51.880;-0.518;2023-07-13T01:32:17;100460.75;;;22.63;44.21
39435;BME280;66825;51.880;-0.518;2023-07-13T01:34:48;100459.16;;;22.62;44.14
39435;BME280;66825;51.880;-0.518;2023-07-13T01:37:14;100458.34;;;22.62;44.21
39435;BME280;66825;51.880;-0.518;2023-07-13T01:39:39;100453.66;;;22.62;44.12
39435;BME280;66825;51.880;-0.518;2023-07-13T01:42:05;100452.06;;;22.61;44.33
39435;BME280;66825;51.880;-0.518;2023-07-13T01:44:31;100446.44;;;22.58;44.24
39435;BME280;66825;51.880;-0.518;2023-07-13T01:46:57;100446.44;;;22.58;44.36
39435;BME280;66825;51.880;-0.518;2023-07-13T01:49:22;100450.78;;;22.59;44.43
39435;BME280;66825;51.880;-0.518;2023-07-13T01:51:48;100452.72;;;22.58;44.12
39435;BME280;66825;51.880;-0.518;2023-07-13T01:54:13;100420.25;;;22.39;44.19
39435;BME280;66825;51.880;-0.518;2023-07-13T01:56:38;100448.84;;;22.59;44.18
39435;BME280;66825;51.880;-0.518;2023-07-13T01:59:05;100445.28;;;22.59;44.22
39435;BME280;66825;51.880;-0.518;2023-07-13T02:01:30;100456.28;;;22.59;44.23
39435;BME280;66825;51.880;-0.518;2023-07-13T02:03:56;100451.94;;;22.58;44.16
39435;BME280;66825;51.880;-0.518;2023-07-13T02:06:21;100400.47;;;22.25;44.12
39435;BME280;66825;51.880;-0.518;2023-07-13T02:08:47;100448.38;;;22.57;44.12
39435;BME280;66825;51.880;-0.518;2023-07-13T02:11:12;100428.28;;;22.44;44.29
39435;BME280;66825;51.880;-0.518;2023-07-13T02:13:38;100444.84;;;22.57;44.51
39435;BME280;66825;51.880;-0.518;2023-07-13T02:16:04;100442.75;;;22.53;44.21
39435;BME280;66825;51.880;-0.518;2023-07-13T02:18:29;100445.97;;;22.56;44.26
39435;BME280;66825;51.880;-0.518;2023-07-13T02:20:56;100447.91;;;22.55;44.29
39435;BME280;66825;51.880;-0.518;2023-07-13T02:23:21;100418.94;;;22.36;44.24
39435;BME280;66825;51.880;-0.518;2023-07-13T02:25:47;100441.13;;;22.52;44.36
39435;BME280;66825;51.880;-0.518;2023-07-13T02:28:12;100390.81;;;22.18;44.31
39435;BME280;66825;51.880;-0.518;2023-07-13T02:30:38;100440.81;;;22.54;44.15
39435;BME280;66825;51.880;-0.518;2023-07-13T02:33:04;100438.06;;;22.54;44.30
39435;BME280;66825;51.880;-0.518;2023-07-13T02:35:30;100445.50;;;22.53;44.25
39435;BME280;66825;51.880;-0.518;2023-07-13T02:37:56;100438.41;;;22.52;44.39
39435;BME280;66825;51.880;-0.518;2023-07-13T02:40:21;100435.66;;;22.52;44.25
39435;BME280;66825;51.880;-0.518;2023-07-13T02:42:47;100446.63;;;22.52;44.25
39435;BME280;66825;51.880;-0.518;2023-07-13T02:45:12;100393.09;;;22.16;44.10
39435;BME280;66825;51.880;-0.518;2023-07-13T02:47:40;100445.03;;;22.51;44.23
39435;BME280;66825;51.880;-0.518;2023-07-13T02:50:06;100437.94;;;22.50;44.50
39435;BME280;66825;51.880;-0.518;2023-07-13T02:52:32;100420.41;;;22.34;44.32
39435;BME280;66825;51.880;-0.518;2023-07-13T02:54:57;100441.47;;;22.51;44.28
39435;BME280;66825;51.880;-0.518;2023-07-13T02:57:23;100438.13;;;22.45;44.27
39435;BME280;66825;51.880;-0.518;2023-07-13T02:59:48;100449.72;;;22.51;44.30
39435;BME280;66825;51.880;-0.518;2023-07-13T03:02:15;100450.06;;;22.49;44.53
39435;BME280;66825;51.880;-0.518;2023-07-13T03:04:40;100447.31;;;22.49;44.31
39435;BME280;66825;51.880;-0.518;2023-07-13T03:07:06;100443.47;;;22.42;44.34
39435;BME280;66825;51.880;-0.518;2023-07-13T03:09:33;100443.75;;;22.49;44.37
39435;BME280;66825;51.880;-0.518;2023-07-13T03:11:59;100442.13;;;22.48;44.39
39435;BME280;66825;51.880;-0.518;2023-07-13T03:14:24;100439.72;;;22.46;44.49
39435;BME280;66825;51.880;-0.518;2023-07-13T03:16:50;100446.03;;;22.47;44.31
39435;BME280;66825;51.880;-0.518;2023-07-13T03:19:17;100450.38;;;22.48;44.33
39435;BME280;66825;51.880;-0.518;2023-07-13T03:21:43;100390.06;;;22.09;44.25
39435;BME280;66825;51.880;-0.518;2023-07-13T03:24:09;100453.47;;;22.46;44.25
39435;BME280;66825;51.880;-0.518;2023-07-13T03:26:35;100453.47;;;22.46;44.40
39435;BME280;66825;51.880;-0.518;2023-07-13T03:29:00;100447.19;;;22.46;44.46
39435;BME280;66825;51.880;-0.518;2023-07-13T03:31:29;100394.06;;;22.12;44.41
39435;BME280;66825;51.880;-0.518;2023-07-13T03:33:56;100450.22;;;22.44;44.27
39435;BME280;66825;51.880;-0.518;2023-07-13T03:36:26;100442.00;;;22.44;44.33
39435;BME280;66825;51.880;-0.518;2023-07-13T03:38:54;100447.50;;;22.44;44.27
39435;BME280;66825;51.880;-0.518;2023-07-13T03:41:20;100451.72;;;22.42;44.26
39435;BME280;66825;51.880;-0.518;2023-07-13T03:43:46;100452.97;;;22.44;44.44
39435;BME280;66825;51.880;-0.518;2023-07-13T03:46:13;100454.94;;;22.44;44.25
39435;BME280;66825;51.880;-0.518;2023-07-13T03:48:39;100448.47;;;22.40;44.38
39435;BME280;66825;51.880;-0.518;2023-07-13T03:51:06;100457.69;;;22.44;44.20
39435;BME280;66825;51.880;-0.518;2023-07-13T03:53:31;100460.41;;;22.44;44.27
39435;BME280;66825;51.880;-0.518;2023-07-13T03:55:57;100462.03;;;22.36;44.35
39435;BME280;66825;51.880;-0.518;2023-07-13T04:00:49;100477.22;;;22.42;44.36
39435;BME280;66825;51.880;-0.518;2023-07-13T04:03:15;100470.13;;;22.41;44.46
39435;BME280;66825;51.880;-0.518;2023-07-13T04:05:41;100474.78;;;22.41;44.50
39435;BME280;66825;51.880;-0.518;2023-07-13T04:08:07;100475.63;;;22.41;44.30
39435;BME280;66825;51.880;-0.518;2023-07-13T04:10:33;100479.50;;;22.40;44.46
39435;BME280;66825;51.880;-0.518;2023-07-13T04:12:58;100480.63;;;22.39;44.54
39435;BME280;66825;51.880;-0.518;2023-07-13T04:15:24;100481.41;;;22.40;44.31
39435;BME280;66825;51.880;-0.518;2023-07-13T04:17:49;100480.63;;;22.39;44.23
39435;BME280;66825;51.880;-0.518;2023-07-13T04:20:15;100495.16;;;22.40;44.45
39435;BME280;66825;51.880;-0.518;2023-07-13T04:22:40;100486.13;;;22.39;44.44
39435;BME280;66825;51.880;-0.518;2023-07-13T04:25:06;100482.41;;;22.35;44.51
39435;BME280;66825;51.880;-0.518;2023-07-13T04:27:32;100481.72;;;22.38;44.56
39435;BME280;66825;51.880;-0.518;2023-07-13T04:29:57;100490.81;;;22.39;44.40
39435;BME280;66825;51.880;-0.518;2023-07-13T04:32:23;100436.91;;;22.04;44.41
39435;BME280;66825;51.880;-0.518;2023-07-13T04:34:48;100484.81;;;22.36;44.41
39435;BME280;66825;51.880;-0.518;2023-07-13T04:37:19;100488.34;;;22.37;44.33
39435;BME280;66825;51.880;-0.518;2023-07-13T04:39:45;100419.06;;;21.89;44.33
39435;BME280;66825;51.880;-0.518;2023-07-13T04:42:10;100490.31;;;22.36;44.32
39435;BME280;66825;51.880;-0.518;2023-07-13T04:44:36;100484.34;;;22.34;44.41
39435;BME280;66825;51.880;-0.518;2023-07-13T04:47:01;100487.91;;;22.35;44.52
39435;BME280;66825;51.880;-0.518;2023-07-13T04:49:27;100496.59;;;22.37;44.65
39435;BME280;66825;51.880;-0.518;2023-07-13T04:51:52;100497.72;;;22.36;44.35
39435;BME280;66825;51.880;-0.518;2023-07-13T04:54:17;100494.19;;;22.35;44.53
39435;BME280;66825;51.880;-0.518;2023-07-13T04:56:43;100492.91;;;22.33;44.43
39435;BME280;66825;51.880;-0.518;2023-07-13T04:59:08;100492.56;;;22.34;44.39
39435;BME280;66825;51.880;-0.518;2023-07-13T05:01:34;100497.25;;;22.34;44.42
39435;BME280;66825;51.880;-0.518;2023-07-13T05:03:59;100444.50;;;21.98;44.27
39435;BME280;66825;51.880;-0.518;2023-07-13T05:06:25;100500.81;;;22.34;44.39
39435;BME280;66825;51.880;-0.518;2023-07-13T05:08:50;100505.03;;;22.32;44.50
39435;BME280;66825;51.880;-0.518;2023-07-13T05:11:17;100502.75;;;22.34;44.43
39435;BME280;66825;51.880;-0.518;2023-07-13T05:13:43;100506.63;;;22.33;44.38
39435;BME280;66825;51.880;-0.518;2023-07-13T05:16:08;100505.34;;;22.30;44.49
39435;BME280;66825;51.880;-0.518;2023-07-13T05:18:34;100509.38;;;22.33;44.36
39435;BME280;66825;51.880;-0.518;2023-07-13T05:21:05;100506.97;;;22.31;44.45
39435;BME280;66825;51.880;-0.518;2023-07-13T05:23:33;100488.13;;;22.21;44.56
39435;BME280;66825;51.880;-0.518;2023-07-13T05:25:59;100508.91;;;22.31;44.51
39435;BME280;66825;51.880;-0.518;2023-07-13T05:28:25;100499.09;;;22.21;44.65
39435;BME280;66825;51.880;-0.518;2023-07-13T05:30:51;100463.91;;;21.93;44.45
39435;BME280;66825;51.880;-0.518;2023-07-13T05:33:17;100525.38;;;22.31;44.35
39435;BME280;66825;51.880;-0.518;2023-07-13T05:35:42;100531.97;;;22.30;44.53
39435;BME280;66825;51.880;-0.518;2023-07-13T05:38:08;100529.56;;;22.28;44.49
39435;BME280;66825;51.880;-0.518;2023-07-13T05:40:33;100524.28;;;22.23;44.62
39435;BME280;66825;51.880;-0.518;2023-07-13T05:42:59;100535.84;;;22.29;44.62
39435;BME280;66825;51.880;-0.518;2023-07-13T05:45:24;100537.00;;;22.28;44.53
39435;BME280;66825;51.880;-0.518;2023-07-13T05:47:51;100550.41;;;22.29;44.40
39435;BME280;66825;51.880;-0.518;2023-07-13T05:50:16;100542.66;;;22.23;44.73
39435;BME280;66825;51.880;-0.518;2023-07-13T05:52:42;100544.75;;;22.26;44.30
39435;BME280;66825;51.880;-0.518;2023-07-13T05:55:07;100528.81;;;22.19;44.52
39435;BME280;66825;51.880;-0.518;2023-07-13T05:57:33;100549.56;;;22.29;44.34
39435;BME280;66825;51.880;-0.518;2023-07-13T05:59:58;100546.03;;;22.28;44.42
39435;BME280;66825;51.880;-0.518;2023-07-13T06:02:24;100540.75;;;22.23;44.36
39435;BME280;66825;51.880;-0.518;2023-07-13T06:04:50;100556.53;;;22.26;44.42
39435;BME280;66825;51.880;-0.518;2023-07-13T06:07:16;100562.84;;;22.27;44.50
39435;BME280;66825;51.880;-0.518;2023-07-13T06:09:41;100551.44;;;22.16;44.37
39435;BME280;66825;51.880;-0.518;2023-07-13T06:12:07;100561.09;;;22.22;44.44
39435;BME280;66825;51.880;-0.518;2023-07-13T06:14:32;100567.84;;;22.25;44.43
39435;BME280;66825;51.880;-0.518;2023-07-13T06:16:58;100565.44;;;22.23;44.42
39435;BME280;66825;51.880;-0.518;2023-07-13T06:19:23;100564.31;;;22.24;44.43
39435;BME280;66825;51.880;-0.518;2023-07-13T06:21:49;100568.97;;;22.24;44.33
39435;BME280;66825;51.880;-0.518;2023-07-13T06:24:14;100580.78;;;22.24;44.40
39435;BME280;66825;51.880;-0.518;2023-07-13T06:26:40;100575.59;;;22.23;44.41
39435;BME280;66825;51.880;-0.518;2023-07-13T06:29:05;100573.69;;;22.23;44.50
39435;BME280;66825;51.880;-0.518;2023-07-13T06:31:31;100577.22;;;22.24;44.54
39435;BME280;66825;51.880;-0.518;2023-07-13T06:33:56;100576.41;;;22.23;44.23
39435;BME280;66825;51.880;-0.518;2023-07-13T06:36:21;100556.94;;;22.07;44.58
39435;BME280;66825;51.880;-0.518;2023-07-13T06:38:47;100586.56;;;22.23;44.34
39435;BME280;66825;51.880;-0.518;2023-07-13T06:41:12;100586.56;;;22.23;44.47
39435;BME280;66825;51.880;-0.518;2023-07-13T06:43:38;100592.06;;;22.23;44.46
39435;BME280;66825;51.880;-0.518;2023-07-13T06:46:04;100579.47;;;22.21;44.47
39435;BME280;66825;51.880;-0.518;2023-07-13T06:48:29;100582.22;;;22.21;44.49
39435;BME280;66825;51.880;-0.518;2023-07-13T06:50:55;100581.41;;;22.21;44.46
39435;BME280;66825;51.880;-0.518;2023-07-13T06:53:21;100577.59;;;22.13;44.50
39435;BME280;66825;51.880;-0.518;2023-07-13T06:55:47;100586.91;;;22.21;44.30
39435;BME280;66825;51.880;-0.518;2023-07-13T06:58:15;100586.13;;;22.20;44.41
39435;BME280;66825;51.880;-0.518;2023-07-13T07:00:41;100565.50;;;22.05;44.48
39435;BME280;66825;51.880;-0.518;2023-07-13T07:03:06;100585.28;;;22.20;44.50
39435;BME280;66825;51.880;-0.518;2023-07-13T07:05:32;100593.53;;;22.20;44.64
39435;BME280;66825;51.880;-0.518;2023-07-13T07:07:58;100601.75;;;22.20;44.50
39435;BME280;66825;51.880;-0.518;2023-07-13T07:10:23;100602.88;;;22.19;44.53
39435;BME280;66825;51.880;-0.518;2023-07-13T07:12:49;100598.38;;;22.14;44.65
39435;BME280;66825;51.880;-0.518;2023-07-13T07:15:14;100602.88;;;22.19;44.60
39435;BME280;66825;51.880;-0.518;2023-07-13T07:17:40;100605.63;;;22.19;44.52
39435;BME280;66825;51.880;-0.518;2023-07-13T07:20:06;100604.00;;;22.18;44.59
39435;BME280;66825;51.880;-0.518;2023-07-13T07:22:32;100606.75;;;22.18;44.71
39435;BME280;66825;51.880;-0.518;2023-07-13T07:24:57;100610.31;;;22.18;44.55
39435;BME280;66825;51.880;-0.518;2023-07-13T07:27:23;100613.56;;;22.20;44.46
39435;BME280;66825;51.880;-0.518;2023-07-13T07:29:49;100610.47;;;22.22;44.53
39435;BME280;66825;51.880;-0.518;2023-07-13T07:32:15;100605.78;;;22.23;44.33
39435;BME280;66825;51.880;-0.518;2023-07-13T07:34:40;100605.13;;;22.26;44.57
39435;BME280;66825;51.880;-0.518;2023-07-13T07:37:06;100616.91;;;22.26;44.43
39435;BME280;66825;51.880;-0.518;2023-07-13T07:39:31;100622.88;;;22.28;44.62
39435;BME280;66825;51.880;-0.518;2023-07-13T07:41:57;100623.38;;;22.30;44.38
39435;BME280;66825;51.880;-0.518;2023-07-13T07:44:23;100625.78;;;22.32;44.45
39435;BME280;66825;51.880;-0.518;2023-07-13T07:46:48;100625.28;;;22.30;44.49
39435;BME280;66825;51.880;-0.518;2023-07-13T07:49:14;100640.44;;;22.36;44.51
39435;BME280;66825;51.880;-0.518;2023-07-13T07:51:40;100634.66;;;22.37;44.63
39435;BME280;66825;51.880;-0.518;2023-07-13T07:54:05;100641.78;;;22.39;44.69
39435;BME280;66825;51.880;-0.518;2023-07-13T07:56:32;100641.78;;;22.39;44.72
39435;BME280;66825;51.880;-0.518;2023-07-13T07:58:57;100591.94;;;22.10;44.87
39435;BME280;66825;51.880;-0.518;2023-07-13T08:01:23;100644.97;;;22.41;45.01
39435;BME280;66825;51.880;-0.518;2023-07-13T08:03:48;100652.09;;;22.42;45.16
39435;BME280;66825;51.880;-0.518;2023-07-13T08:06:14;100649.34;;;22.42;45.23
39435;BME280;66825;51.880;-0.518;2023-07-13T08:08:40;100650.97;;;22.43;45.13
39435;BME280;66825;51.880;-0.518;2023-07-13T08:11:07;100647.09;;;22.44;45.26
39435;BME280;66825;51.880;-0.518;2023-07-13T08:13:33;100654.19;;;22.45;45.34
39435;BME280;66825;51.880;-0.518;2023-07-13T08:15:59;100653.06;;;22.46;45.64
39435;BME280;66825;51.880;-0.518;2023-07-13T08:18:25;100653.22;;;22.49;45.88
39435;BME280;66825;51.880;-0.518;2023-07-13T08:20:50;100639.19;;;22.42;45.99
39435;BME280;66825;51.880;-0.518;2023-07-13T08:23:16;100647.53;;;22.55;45.66
39435;BME280;66825;51.880;-0.518;2023-07-13T08:25:42;100633.00;;;22.45;45.66
39435;BME280;66825;51.880;-0.518;2023-07-13T08:28:08;100646.53;;;22.59;45.59
39435;BME280;66825;51.880;-0.518;2023-07-13T08:30:33;100644.94;;;22.58;45.91
39435;BME280;66825;51.880;-0.518;2023-07-13T08:32:59;100645.06;;;22.62;45.82
39435;BME280;66825;51.880;-0.518;2023-07-13T08:35:24;100646.69;;;22.63;45.77
39435;BME280;66825;51.880;-0.518;2023-07-13T08:37:51;100636.34;;;22.60;45.61
39435;BME280;66825;51.880;-0.518;2023-07-13T08:40:17;100651.50;;;22.66;45.68
39435;BME280;66825;51.880;-0.518;2023-07-13T08:42:46;100642.94;;;22.67;45.72
39435;BME280;66825;51.880;-0.518;2023-07-13T08:45:23;100646.16;;;22.69;45.79
39435;BME280;66825;51.880;-0.518;2023-07-13T08:47:56;100641.16;;;22.72;45.58
39435;BME280;66825;51.880;-0.518;2023-07-13T08:50:29;100643.09;;;22.71;45.42
39435;BME280;66825;51.880;-0.518;2023-07-13T08:52:55;100651.47;;;22.75;45.71
39435;BME280;66825;51.880;-0.518;2023-07-13T08:55:25;100640.50;;;22.75;45.70
39435;BME280;66825;51.880;-0.518;2023-07-13T08:58:05;100640.16;;;22.76;46.01
39435;BME280;66825;51.880;-0.518;2023-07-13T09:00:50;100644.50;;;22.77;46.28
39435;BME280;66825;51.880;-0.518;2023-07-13T09:03:26;100639.03;;;22.77;46.13
39435;BME280;66825;51.880;-0.518;2023-07-13T09:05:58;100645.00;;;22.79;45.98
39435;BME280;66825;51.880;-0.518;2023-07-13T09:11:23;100644.31;;;22.82;45.98
39435;BME280;66825;51.880;-0.518;2023-07-13T09:17:17;100621.56;;;22.73;46.32
39435;BME280;66825;51.880;-0.518;2023-07-13T09:19:46;100639.31;;;22.84;46.50
39435;BME280;66825;51.880;-0.518;2023-07-13T09:22:18;100637.84;;;22.87;46.57
39435;BME280;66825;51.880;-0.518;2023-07-13T09:27:20;100630.38;;;22.88;46.21
39435;BME280;66825;51.880;-0.518;2023-07-13T09:29:52;100629.25;;;22.89;46.34
39435;BME280;66825;51.880;-0.518;2023-07-13T09:32:22;100632.97;;;22.93;46.41
39435;BME280;66825;51.880;-0.518;2023-07-13T09:34:53;100632.97;;;22.93;46.22
39435;BME280;66825;51.880;-0.518;2023-07-13T09:37:27;100639.59;;;22.92;46.37
39435;BME280;66825;51.880;-0.518;2023-07-13T09:39:54;100643.28;;;22.96;46.15
39435;BME280;66825;51.880;-0.518;2023-07-13T09:42:22;100643.28;;;22.96;46.22
39435;BME280;66825;51.880;-0.518;2023-07-13T09:44:52;100639.38;;;22.97;46.22
39435;BME280;66825;51.880;-0.518;2023-07-13T09:47:27;100639.38;;;22.97;46.33
39435;BME280;66825;51.880;-0.518;2023-07-13T09:50:06;100600.28;;;22.70;45.93
39435;BME280;66825;51.880;-0.518;2023-07-13T09:52:42;100643.41;;;22.99;45.97
39435;BME280;66825;51.880;-0.518;2023-07-13T09:55:31;100637.78;;;22.96;45.97
39435;BME280;66825;51.880;-0.518;2023-07-13T09:57:57;100647.78;;;23.00;45.69
39435;BME280;66825;51.880;-0.518;2023-07-13T10:00:26;100646.63;;;23.02;45.54
39435;BME280;66825;51.880;-0.518;2023-07-13T10:03:00;100645.03;;;23.00;45.58
39435;BME280;66825;51.880;-0.518;2023-07-13T10:05:26;100648.25;;;23.03;45.67
39435;BME280;66825;51.880;-0.518;2023-07-13T10:07:55;100642.75;;;23.03;45.81
39435;BME280;66825;51.880;-0.518;2023-07-13T10:10:22;100640.81;;;23.03;45.58
39435;BME280;66825;51.880;-0.518;2023-07-13T10:12:49;100645.97;;;23.05;45.47
39435;BME280;66825;51.880;-0.518;2023-07-13T10:15:21;100649.53;;;23.05;45.60
39435;BME280;66825;51.880;-0.518;2023-07-13T10:17:48;100656.28;;;23.08;46.19
39435;BME280;66825;51.880;-0.518;2023-07-13T10:20:14;100657.91;;;23.09;45.86
39435;BME280;66825;51.880;-0.518;2023-07-13T10:22:58;100665.81;;;23.10;45.68
39435;BME280;66825;51.880;-0.518;2023-07-13T10:25:30;100669.38;;;23.11;45.88
39435;BME280;66825;51.880;-0.518;2023-07-13T10:28:03;100660.19;;;23.07;45.77
39435;BME280;66825;51.880;-0.518;2023-07-13T10:30:34;100671.44;;;23.14;45.71
39435;BME280;66825;51.880;-0.518;2023-07-13T10:33:09;100674.69;;;23.16;46.01
39435;BME280;66825;51.880;-0.518;2023-07-13T10:35:37;100678.25;;;23.16;46.01
39435;BME280;66825;51.880;-0.518;2023-07-13T10:38:06;100655.38;;;23.04;46.15
39435;BME280;66825;51.880;-0.518;2023-07-13T10:40:38;100679.84;;;23.18;46.79
39435;BME280;66825;51.880;-0.518;2023-07-13T10:43:14;100677.59;;;23.20;47.09
39435;BME280;66825;51.880;-0.518;2023-07-13T10:45:45;100666.78;;;23.14;47.38
39435;BME280;66825;51.880;-0.518;2023-07-13T10:48:13;100674.97;;;23.23;47.67
39435;BME280;66825;51.880;-0.518;2023-07-13T10:50:43;100671.75;;;23.21;48.13
39435;BME280;66825;51.880;-0.518;2023-07-13T10:53:42;100673.50;;;23.26;50.10
39435;BME280;66825;51.880;-0.518;2023-07-13T10:56:24;100669.75;;;23.30;51.71
39435;BME280;66825;51.880;-0.518;2023-07-13T11:01:40;100653.81;;;23.24;50.58
39435;BME280;66825;51.880;-0.518;2023-07-13T11:04:11;100664.59;;;23.29;50.11
39435;BME280;66825;51.880;-0.518;2023-07-13T11:06:40;100666.22;;;23.30;49.24
39435;BME280;66825;51.880;-0.518;2023-07-13T11:09:31;100614.19;;;22.95;49.11
39435;BME280;66825;51.880;-0.518;2023-07-13T11:12:06;100668.16;;;23.29;48.70
39435;BME280;66825;51.880;-0.518;2023-07-13T11:18:11;100614.19;;;22.95;48.96
39435;BME280;66825;51.880;-0.518;2023-07-13T11:23:15;100674.47;;;23.30;48.68
39435;BME280;66825;51.880;-0.518;2023-07-13T11:25:43;100657.22;;;23.21;48.47
39435;BME280;66825;51.880;-0.518;2023-07-13T11:30:41;100656.84;;;23.31;48.49
39435;BME280;66825;51.880;-0.518;2023-07-13T11:38:40;100652.47;;;23.30;47.73
39435;BME280;66825;51.880;-0.518;2023-07-13T11:41:14;100655.81;;;23.36;47.51
39435;BME280;66825;51.880;-0.518;2023-07-13T11:43:40;100646.78;;;23.35;47.47
39435;BME280;66825;51.880;-0.518;2023-07-13T11:46:19;100599.72;;;23.07;47.27
39435;BME280;66825;51.880;-0.518;2023-07-13T11:48:46;100656.91;;;23.43;46.96
39435;BME280;66825;51.880;-0.518;2023-07-13T11:51:34;100647.16;;;23.46;46.91
39435;BME280;66825;51.880;-0.518;2023-07-13T11:54:10;100656.69;;;23.48;46.88
39435;BME280;66825;51.880;-0.518;2023-07-13T11:56:38;100647.31;;;23.50;47.02
39435;BME280;66825;51.880;-0.518;2023-07-13T11:59:06;100653.28;;;23.52;46.77
39435;BME280;66825;51.880;-0.518;2023-07-13T12:01:35;100601.28;;;23.16;46.16
39435;BME280;66825;51.880;-0.518;2023-07-13T12:04:08;100652.16;;;23.53;45.69
39435;BME280;66825;51.880;-0.518;2023-07-13T12:06:43;100652.47;;;23.51;45.77
39435;BME280;66825;51.880;-0.518;2023-07-13T12:09:13;100652.81;;;23.50;45.12
39435;BME280;66825;51.880;-0.518;2023-07-13T12:11:42;100651.19;;;23.48;44.84
39435;BME280;66825;51.880;-0.518;2023-07-13T12:14:15;100630.41;;;23.39;44.48
39435;BME280;66825;51.880;-0.518;2023-07-13T12:16:41;100648.31;;;23.45;44.73
39435;BME280;66825;51.880;-0.518;2023-07-13T12:19:17;100623.84;;;23.31;44.28
39435;BME280;66825;51.880;-0.518;2023-07-13T12:21:44;100649.00;;;23.42;44.36
39435;BME280;66825;51.880;-0.518;2023-07-13T12:24:17;100623.25;;;23.25;44.31
39435;BME280;66825;51.880;-0.518;2023-07-13T12:26:44;100649.31;;;23.40;43.92
39435;BME280;66825;51.880;-0.518;2023-07-13T12:29:16;100639.31;;;23.36;43.76
39435;BME280;66825;51.880;-0.518;2023-07-13T12:31:47;100645.78;;;23.40;43.70
39435;BME280;66825;51.880;-0.518;2023-07-13T12:34:18;100644.94;;;23.39;43.61
39435;BME280;66825;51.880;-0.518;2023-07-13T12:36:50;100642.53;;;23.38;43.45
39435;BME280;66825;51.880;-0.518;2023-07-13T12:39:22;100638.66;;;23.39;43.09
39435;BME280;66825;51.880;-0.518;2023-07-13T12:41:50;100636.69;;;23.39;43.40
39435;BME280;66825;51.880;-0.518;2023-07-13T12:44:19;100634.28;;;23.38;43.10
39435;BME280;66825;51.880;-0.518;2023-07-13T12:46:55;100637.03;;;23.38;42.63
39435;BME280;66825;51.880;-0.518;2023-07-13T12:49:25;100626.03;;;23.38;42.94
39435;BME280;66825;51.880;-0.518;2023-07-13T12:51:56;100633.50;;;23.37;42.77
39435;BME280;66825;51.880;-0.518;2023-07-13T12:54:22;100639.00;;;23.37;42.87
39435;BME280;66825;51.880;-0.518;2023-07-13T12:56:50;100626.38;;;23.36;42.83
39435;BME280;66825;51.880;-0.518;2023-07-13T12:59:21;100624.31;;;23.33;42.79
39435;BME280;66825;51.880;-0.518;2023-07-13T13:01:48;100620.41;;;23.34;42.97
39435;BME280;66825;51.880;-0.518;2023-07-13T13:04:18;100629.63;;;23.38;43.17
39435;BME280;66825;51.880;-0.518;2023-07-13T13:06:47;100624.56;;;23.40;43.30
39435;BME280;66825;51.880;-0.518;2023-07-13T13:09:16;100628.59;;;23.43;43.43
39435;BME280;66825;51.880;-0.518;2023-07-13T13:11:42;100620.16;;;23.48;43.57
39435;BME280;66825;51.880;-0.518;2023-07-13T13:14:08;100617.06;;;23.50;43.87